Time;durP1;ratioP1;P1;durP2;ratioP2;P2;SDS_P1;SDS_P2;PMS_P1;PMS_P2;Temp;Humidity;BMP_temperature;BMP_pressure;BME280_temperature;BME280_humidity;BME280_pressure;Samples;Min_cycle;Max_cycle;Signal;HPM_P1;HPM_P2
2022/07/28 00:02:22;;;;;;;1.23;0.50;;;;;;;29.28;39.15;94921.13;5053165;28;20262;-71
2022/07/28 00:04:49;;;;;;;0.57;0.57;;;;;;;28.95;40.26;94916.56;5053112;28;20287;-71
2022/07/28 00:07:16;;;;;;;0.57;0.57;;;;;;;28.77;40.98;94920.22;5048951;28;20194;-71
2022/07/28 00:09:42;;;;;;;0.73;0.73;;;;;;;28.95;41.10;94931.97;5042946;28;20209;-70
2022/07/28 00:12:09;;;;;;;1.47;0.90;;;;;;;28.52;42.77;94941.50;5054288;28;20337;-69
2022/07/28 00:14:36;;;;;;;0.90;0.73;;;;;;;28.35;43.46;94941.25;5054212;28;20674;-69
2022/07/28 00:17:03;;;;;;;1.60;1.07;;;;;;;28.16;43.39;94958.34;5052461;28;20250;-68
2022/07/28 00:19:30;;;;;;;0.90;0.90;;;;;;;28.12;43.73;94976.38;5052573;28;20208;-69
2022/07/28 00:21:57;;;;;;;2.17;1.97;;;;;;;27.54;45.53;94977.78;5053204;28;20200;-70
2022/07/28 00:24:24;;;;;;;0.40;0.40;;;;;;;27.77;45.55;94975.84;5033446;28;20197;-71
2022/07/28 00:26:51;;;;;;;0.70;0.70;;;;;;;27.95;45.90;94971.53;5043215;28;20274;-69
2022/07/28 00:29:18;;;;;;;0.80;0.80;;;;;;;27.86;47.11;94973.66;5052116;28;20230;-68
2022/07/28 00:31:45;;;;;;;0.60;0.60;;;;;;;28.14;44.43;94968.69;5052700;28;20196;-70
2022/07/28 00:34:12;;;;;;;2.27;0.90;;;;;;;28.32;45.63;94958.94;5051959;28;20196;-69
2022/07/28 00:36:39;;;;;;;0.67;0.67;;;;;;;28.11;47.33;94958.66;5052363;28;20724;-70
2022/07/28 00:39:06;;;;;;;1.53;1.27;;;;;;;27.49;49.38;94964.63;5052387;28;20279;-71
2022/07/28 00:41:35;;;;;;;0.80;0.80;;;;;;;27.44;49.05;94956.84;5050922;28;20581;-71
2022/07/28 00:44:05;;;;;;;3.70;1.53;;;;;;;27.27;49.86;94935.78;5052117;28;20236;-73
2022/07/28 00:46:32;;;;;;;0.93;0.93;;;;;;;27.04;50.58;94917.72;5052380;28;20220;-73
2022/07/28 00:48:59;;;;;;;1.63;0.73;;;;;;;27.18;50.75;94889.50;5052188;28;20226;-72
2022/07/28 00:51:27;;;;;;;0.83;0.83;;;;;;;27.26;50.45;94891.19;5038427;28;20250;-72
2022/07/28 00:53:54;;;;;;;0.60;0.60;;;;;;;27.37;50.08;94890.22;5052081;28;20258;-73
2022/07/28 00:56:22;;;;;;;0.70;0.70;;;;;;;26.74;51.16;94924.88;5052116;28;20211;-73
2022/07/28 00:58:49;;;;;;;0.67;0.67;;;;;;;26.03;53.79;94975.56;5051905;28;20189;-71
2022/07/28 01:01:18;;;;;;;0.30;0.30;;;;;;;25.93;53.30;94970.72;5052136;28;20192;-72
2022/07/28 01:03:50;;;;;;;0.43;0.43;;;;;;;26.46;51.70;94979.97;5051755;28;20365;-73
2022/07/28 01:06:56;;;;;;;0.43;0.43;;;;;;;26.43;52.15;94984.13;5052008;28;20675;-70
2022/07/28 01:09:53;;;;;;;3.40;2.43;;;;;;;26.13;53.70;94987.72;5031223;28;20189;-70
2022/07/28 01:12:32;;;;;;;1.20;1.10;;;;;;;26.25;53.82;94988.38;5049434;28;20266;-71
2022/07/28 01:15:10;;;;;;;1.80;1.07;;;;;;;26.78;52.43;94974.13;5051921;28;20289;-71
2022/07/28 01:17:41;;;;;;;1.20;1.10;;;;;;;27.29;50.79;94971.19;5051724;28;20192;-72
2022/07/28 01:20:17;;;;;;;0.60;0.60;;;;;;;27.49;50.64;94970.00;5039936;28;20223;-73
2022/07/28 01:23:16;;;;;;;0.40;0.40;;;;;;;27.65;49.83;94968.72;5037118;28;20200;-73
2022/07/28 01:26:01;;;;;;;0.47;0.47;;;;;;;27.45;49.95;94966.47;5050143;28;20254;-72
2022/07/28 01:28:28;;;;;;;1.03;1.03;;;;;;;27.54;49.79;94967.00;5049890;28;20296;-72
2022/07/28 01:31:04;;;;;;;0.77;0.77;;;;;;;27.48;50.01;94957.69;5051624;28;20214;-73
2022/07/28 01:33:37;;;;;;;0.60;0.53;;;;;;;27.70;49.48;94946.13;5053620;28;20253;-74
2022/07/28 01:36:11;;;;;;;0.93;0.87;;;;;;;27.79;49.99;94935.88;5051726;28;20262;-70
2022/07/28 01:38:40;;;;;;;0.33;0.33;;;;;;;27.51;50.20;94940.81;5051266;28;20718;-71
2022/07/28 01:41:13;;;;;;;0.40;0.40;;;;;;;27.23;51.21;94943.00;5051468;28;20256;-71
2022/07/28 01:43:44;;;;;;;0.77;0.77;;;;;;;27.35;51.37;94942.88;5050808;28;20611;-72
2022/07/28 01:46:13;;;;;;;1.33;0.60;;;;;;;27.51;50.76;94940.81;5051010;28;20223;-71
2022/07/28 01:48:44;;;;;;;1.57;0.93;;;;;;;27.58;50.97;94946.31;5051374;28;20193;-70
2022/07/28 01:51:13;;;;;;;7.93;0.97;;;;;;;27.71;50.11;94939.59;5050945;28;20188;-69
2022/07/28 01:53:42;;;;;;;1.07;1.07;;;;;;;27.06;51.39;94928.16;5050774;28;20203;-69
2022/07/28 01:56:09;;;;;;;1.13;1.10;;;;;;;27.01;51.66;94928.41;5041512;28;20211;-70
2022/07/28 01:58:38;;;;;;;0.70;0.70;;;;;;;27.09;51.77;94945.47;5050401;28;20262;-71
2022/07/28 02:01:06;;;;;;;0.60;0.60;;;;;;;26.62;53.89;94943.03;5050762;28;20196;-70
2022/07/28 02:03:33;;;;;;;0.87;0.87;;;;;;;26.34;55.04;94943.25;5049107;28;20296;-70
2022/07/28 02:06:02;;;;;;;0.60;0.60;;;;;;;26.25;55.13;94945.38;5050667;28;20212;-71
2022/07/28 02:08:31;;;;;;;1.23;1.13;;;;;;;26.66;54.35;94941.22;5050600;28;20193;-70
2022/07/28 02:13:47;;;;;;;1.83;1.27;;;;;;;26.16;55.13;94957.47;5049276;28;20681;-70
2022/07/28 02:16:16;;;;;;;0.20;0.20;;;;;;;26.30;54.59;94963.91;5038439;28;20641;-69
2022/07/28 02:18:45;;;;;;;0.70;0.70;;;;;;;26.53;54.35;94962.06;5048699;28;20203;-70
2022/07/28 02:21:14;;;;;;;0.53;0.53;;;;;;;26.63;53.99;94956.13;5037300;28;20207;-72
2022/07/28 02:23:46;;;;;;;0.93;0.80;;;;;;;26.72;54.34;94964.00;5050144;28;20262;-71
2022/07/28 02:26:15;;;;;;;1.07;0.60;;;;;;;26.65;54.03;94963.84;5050980;28;20212;-71
2022/07/28 02:28:51;;;;;;;1.27;1.20;;;;;;;26.90;53.34;94965.88;5050188;28;20216;-69
2022/07/28 02:31:56;;;;;;;0.80;0.77;;;;;;;27.00;53.02;94965.31;5050334;28;20196;-70
2022/07/28 02:34:25;;;;;;;1.37;1.23;;;;;;;26.83;53.51;94971.13;5045439;28;20219;-69
2022/07/28 02:36:57;;;;;;;0.83;0.83;;;;;;;26.94;53.67;94972.13;5048824;28;20242;-70
2022/07/28 02:39:29;;;;;;;1.63;1.53;;;;;;;26.56;53.63;94977.50;5050179;28;20224;-69
2022/07/28 02:42:18;;;;;;;0.57;0.57;;;;;;;26.87;52.71;94963.91;5050350;28;20201;-71
2022/07/28 02:44:57;;;;;;;0.43;0.37;;;;;;;26.95;51.86;94976.34;5035671;28;20228;-70
2022/07/28 02:47:27;;;;;;;1.23;1.13;;;;;;;27.14;51.91;94977.44;5049927;28;20699;-70
2022/07/28 02:49:57;;;;;;;0.67;0.67;;;;;;;27.40;51.34;94966.78;5050079;28;20270;-69
2022/07/28 02:52:26;;;;;;;1.97;1.77;;;;;;;27.39;51.32;94970.63;5049792;28;20247;-68
2022/07/28 02:54:55;;;;;;;1.17;1.07;;;;;;;27.49;51.52;94972.69;5049886;28;20196;-71
2022/07/28 02:57:24;;;;;;;0.60;0.60;;;;;;;27.53;51.39;94976.22;5030163;28;20205;-70
2022/07/28 02:59:52;;;;;;;0.77;0.77;;;;;;;27.38;51.69;94985.19;5042816;28;20239;-70
2022/07/28 03:02:20;;;;;;;0.97;0.97;;;;;;;27.48;51.82;94979.22;5048578;28;20196;-70
2022/07/28 03:04:55;;;;;;;1.23;0.97;;;;;;;27.63;51.16;94978.31;5038753;28;20193;-69
2022/07/28 03:07:22;;;;;;;1.10;0.80;;;;;;;27.63;51.10;94986.38;5052084;28;20217;-70
2022/07/28 03:09:49;;;;;;;2.10;1.27;;;;;;;27.73;50.49;94993.84;5054225;28;20247;-69
2022/07/28 03:12:16;;;;;;;1.57;1.47;;;;;;;27.19;51.80;95001.38;5052849;28;20204;-70
2022/07/28 03:14:43;;;;;;;0.63;0.63;;;;;;;27.08;52.40;95003.09;5053896;28;20649;-70
2022/07/28 03:17:09;;;;;;;0.87;0.87;;;;;;;26.43;54.43;94992.19;5053664;28;20188;-70
2022/07/28 03:19:36;;;;;;;0.40;0.40;;;;;;;26.50;55.02;94995.03;5053406;28;20207;-70
2022/07/28 03:22:04;;;;;;;1.13;0.70;;;;;;;26.84;53.90;94988.81;5053874;28;20208;-70
2022/07/28 03:24:37;;;;;;;0.57;0.57;;;;;;;26.95;53.76;94997.09;5039187;28;20193;-70
2022/07/28 03:27:10;;;;;;;1.47;1.43;;;;;;;27.14;53.38;94985.50;5053704;28;20228;-71
2022/07/28 03:29:39;;;;;;;0.50;0.50;;;;;;;27.28;52.50;94981.16;5053485;28;20204;-69
2022/07/28 03:32:07;;;;;;;0.70;0.70;;;;;;;27.33;52.29;94993.56;5053828;28;20197;-70
2022/07/28 03:34:34;;;;;;;1.20;0.97;;;;;;;27.30;52.38;94984.25;5039124;28;20605;-70
2022/07/28 03:37:13;;;;;;;0.80;0.80;;;;;;;27.13;52.66;94987.44;5053733;28;20200;-69
2022/07/28 03:39:47;;;;;;;0.73;0.73;;;;;;;26.76;54.15;94976.38;5053591;28;20192;-69
2022/07/28 03:42:17;;;;;;;1.20;1.10;;;;;;;27.17;53.32;94982.13;5053298;28;20188;-70
2022/07/28 03:44:47;;;;;;;2.37;1.53;;;;;;;27.17;53.06;94979.44;5052775;28;20231;-70
2022/07/28 03:47:14;;;;;;;2.07;1.53;;;;;;;27.17;52.71;94984.81;5053695;28;20280;-71
2022/07/28 03:49:44;;;;;;;0.80;0.67;;;;;;;27.28;52.21;94980.41;5050477;28;20201;-70
2022/07/28 03:52:11;;;;;;;3.00;1.43;;;;;;;27.11;53.14;94975.47;5044193;28;20207;-71
2022/07/28 03:54:38;;;;;;;0.40;0.40;;;;;;;26.81;54.05;94972.63;5054145;28;20192;-71
2022/07/28 03:57:05;;;;;;;0.97;0.97;;;;;;;26.96;53.84;94969.84;5053182;28;20189;-70
2022/07/28 03:59:32;;;;;;;1.33;1.23;;;;;;;27.24;52.77;94963.41;5053043;28;20200;-71
2022/07/28 04:01:58;;;;;;;1.50;1.40;;;;;;;26.98;54.14;94951.44;5053130;28;20200;-69
2022/07/28 04:04:26;;;;;;;1.77;1.27;;;;;;;26.80;54.79;94947.66;5055325;28;20271;-69
2022/07/28 04:06:52;;;;;;;0.87;0.87;;;;;;;27.08;53.94;94933.16;5055286;28;20208;-70
2022/07/28 04:09:19;;;;;;;1.10;1.03;;;;;;;26.55;55.03;94916.78;5052973;28;20266;-70
2022/07/28 04:11:46;;;;;;;0.83;0.83;;;;;;;26.82;54.27;94915.78;5052785;28;20568;-70
2022/07/28 04:14:13;;;;;;;1.07;0.97;;;;;;;26.44;55.35;94923.88;5053118;28;20203;-69
2022/07/28 04:16:43;;;;;;;2.00;1.37;;;;;;;26.65;54.49;94913.53;5051273;28;20226;-70
2022/07/28 04:19:11;;;;;;;14.00;1.50;;;;;;;26.56;55.29;94923.75;5051946;28;20196;-69
2022/07/28 04:21:38;;;;;;;1.10;1.00;;;;;;;26.27;56.58;94918.94;5033438;28;20633;-70
2022/07/28 04:24:05;;;;;;;1.47;1.27;;;;;;;26.74;54.14;94902.59;5046759;28;20214;-71
2022/07/28 04:26:32;;;;;;;3.23;2.40;;;;;;;26.23;55.30;94893.91;5038914;28;20235;-70
2022/07/28 04:28:59;;;;;;;4.77;1.73;;;;;;;26.67;53.76;94887.09;5052785;28;20199;-69
2022/07/28 04:31:29;;;;;;;3.20;1.27;;;;;;;26.50;53.85;94892.13;5051011;28;20209;-68
2022/07/28 04:33:56;;;;;;;2.47;0.90;;;;;;;26.47;53.36;94901.69;5040246;28;20204;-69
2022/07/28 04:36:24;;;;;;;1.43;1.30;;;;;;;26.54;52.97;94915.25;5052233;28;20597;-69
2022/07/28 04:38:51;;;;;;;1.27;1.20;;;;;;;26.32;53.17;94944.75;5052360;28;20682;-69
2022/07/28 04:41:19;;;;;;;2.40;1.47;;;;;;;26.55;52.91;94954.44;5052980;28;20750;-69
2022/07/28 04:43:46;;;;;;;0.90;0.90;;;;;;;26.75;52.36;94953.31;5047446;28;20196;-68
2022/07/28 04:46:13;;;;;;;4.33;3.87;;;;;;;26.56;53.38;94966.75;5043241;28;20212;-70
2022/07/28 04:48:41;;;;;;;1.97;1.87;;;;;;;26.73;53.08;94971.69;5051960;28;20577;-71
2022/07/28 04:51:09;;;;;;;5.80;2.97;;;;;;;26.64;53.50;94978.41;5042944;28;20576;-75
2022/07/28 04:53:35;;;;;;;1.07;0.90;;;;;;;26.16;54.26;94982.41;5046499;28;20207;-68
2022/07/28 04:56:02;;;;;;;0.30;0.30;;;;;;;25.83;56.21;94990.06;5052265;28;20234;-73
2022/07/28 04:58:30;;;;;;;2.07;1.87;;;;;;;26.03;56.16;94994.38;5050417;28;20694;-71
2022/07/28 05:00:58;;;;;;;4.10;2.43;;;;;;;26.24;55.71;94981.41;5039685;28;20255;-70
2022/07/28 05:03:25;;;;;;;3.17;2.87;;;;;;;25.90;57.48;94987.56;5037737;28;20256;-69
2022/07/28 05:05:53;;;;;;;1.47;1.33;;;;;;;25.91;57.67;94973.00;5045840;28;20198;-74
2022/07/28 05:08:22;;;;;;;2.23;1.53;;;;;;;26.02;56.90;94974.03;5044978;28;20587;-73
2022/07/28 05:10:55;;;;;;;3.13;1.30;;;;;;;26.20;56.24;94956.41;5051908;28;20196;-72
2022/07/28 05:13:22;;;;;;;1.93;1.83;;;;;;;26.00;57.02;94949.44;5051223;28;20690;-69
2022/07/28 05:15:50;;;;;;;1.27;1.17;;;;;;;26.09;56.69;94941.97;5051177;28;20592;-70
2022/07/28 05:18:18;;;;;;;1.23;1.13;;;;;;;26.03;56.68;94946.03;5051497;28;20193;-70
2022/07/28 05:20:45;;;;;;;1.33;1.23;;;;;;;25.91;57.53;94956.91;5052032;28;20208;-69
2022/07/28 05:23:12;;;;;;;1.33;1.23;;;;;;;26.20;55.73;94990.53;5050677;28;20270;-68
2022/07/28 05:25:39;;;;;;;8.70;1.90;;;;;;;26.13;55.79;94990.41;5049191;28;20650;-70
2022/07/28 05:28:06;;;;;;;1.43;1.33;;;;;;;25.60;57.47;94991.84;5047799;28;20396;-73
2022/07/28 05:30:35;;;;;;;2.73;2.50;;;;;;;25.86;57.33;94997.41;5048476;28;20189;-72
2022/07/28 05:33:02;;;;;;;1.57;1.47;;;;;;;26.11;56.88;94993.44;5048753;28;20271;-71
2022/07/28 05:35:29;;;;;;;1.90;1.43;;;;;;;26.35;55.64;94993.16;5049428;28;20188;-72
2022/07/28 05:37:56;;;;;;;1.17;1.17;;;;;;;26.22;56.18;95007.88;5050189;28;20200;-72
2022/07/28 05:40:23;;;;;;;1.40;1.10;;;;;;;26.28;55.49;95009.13;5050635;28;20254;-71
2022/07/28 05:42:49;;;;;;;0.73;0.73;;;;;;;26.56;54.19;95012.44;5051582;28;20196;-74
2022/07/28 05:45:16;;;;;;;0.80;0.80;;;;;;;25.84;55.63;95026.53;5049041;28;20244;-71
2022/07/28 05:47:48;;;;;;;10.47;1.33;;;;;;;25.65;57.48;95018.41;5038774;28;20204;-71
2022/07/28 05:50:16;;;;;;;0.40;0.40;;;;;;;26.07;56.53;94987.22;5037264;28;20205;-72
2022/07/28 05:52:45;;;;;;;1.53;1.20;;;;;;;26.33;56.49;94965.88;5050837;28;20246;-72
2022/07/28 05:55:13;;;;;;;1.20;1.13;;;;;;;26.33;56.69;94984.69;5051170;28;20283;-72
2022/07/28 05:57:40;;;;;;;0.90;0.83;;;;;;;26.67;54.50;94983.06;5051291;28;20619;-71
2022/07/28 06:00:09;;;;;;;1.00;1.00;;;;;;;27.08;53.61;94982.34;5050983;28;20204;-72
2022/07/28 06:02:41;;;;;;;1.27;1.23;;;;;;;26.90;53.17;94995.47;5051304;28;20201;-72
2022/07/28 06:05:08;;;;;;;1.17;1.10;;;;;;;26.81;53.66;94976.09;5036030;28;20224;-71
2022/07/28 06:07:35;;;;;;;1.53;1.37;;;;;;;27.02;53.46;94973.03;5050872;28;20220;-70
2022/07/28 06:10:15;;;;;;;1.67;1.57;;;;;;;27.11;52.52;94991.63;5051005;28;20283;-73
2022/07/28 06:12:46;;;;;;;1.80;1.70;;;;;;;27.27;52.70;94989.59;5037838;28;20201;-72
2022/07/28 06:15:16;;;;;;;1.40;1.30;;;;;;;27.02;52.77;94984.53;5050968;28;20261;-72
2022/07/28 06:17:43;;;;;;;1.70;1.33;;;;;;;27.24;52.77;94971.47;5032352;28;20637;-72
2022/07/28 06:20:11;;;;;;;2.60;1.27;;;;;;;27.13;53.16;94983.97;5043738;28;20227;-72
2022/07/28 06:22:46;;;;;;;0.60;0.60;;;;;;;27.32;53.00;94982.03;5036553;28;20199;-72
2022/07/28 06:25:15;;;;;;;1.57;1.13;;;;;;;27.34;53.08;94990.53;5051016;28;20196;-74
2022/07/28 06:27:44;;;;;;;1.27;1.07;;;;;;;27.56;52.45;94981.66;5050246;28;20208;-71
2022/07/28 06:30:11;;;;;;;1.00;0.90;;;;;;;27.41;50.93;94979.13;5050505;28;20733;-73
2022/07/28 06:32:38;;;;;;;0.93;0.93;;;;;;;27.12;49.61;94985.88;5047352;28;20870;-72
2022/07/28 06:35:05;;;;;;;0.47;0.47;;;;;;;27.48;49.66;94990.00;5039394;28;20258;-73
2022/07/28 06:37:33;;;;;;;1.13;1.03;;;;;;;27.89;49.24;94983.72;5050342;28;20204;-73
2022/07/28 06:40:00;;;;;;;0.97;0.83;;;;;;;27.52;50.46;94998.88;5050628;28;20675;-73
2022/07/28 06:42:27;;;;;;;0.70;0.70;;;;;;;27.23;51.37;95010.25;5036918;28;20194;-74
2022/07/28 06:44:54;;;;;;;0.40;0.40;;;;;;;27.18;51.36;94997.13;5049758;28;20228;-75
2022/07/28 06:47:25;;;;;;;2.67;1.73;;;;;;;27.52;50.82;94988.13;5037689;28;20654;-73
2022/07/28 06:49:52;;;;;;;1.30;1.20;;;;;;;27.55;51.06;94980.13;5049433;28;20192;-73
2022/07/28 06:52:19;;;;;;;1.33;1.07;;;;;;;27.47;52.08;94983.81;5050842;28;20305;-74
2022/07/28 06:54:49;;;;;;;1.20;1.20;;;;;;;27.66;51.79;94985.69;5041672;28;20228;-73
2022/07/28 06:57:19;;;;;;;0.87;0.87;;;;;;;27.32;51.10;94992.00;5050315;28;20303;-74
2022/07/28 06:59:47;;;;;;;1.70;1.60;;;;;;;27.15;51.78;94987.09;5038668;28;20224;-73
2022/07/28 07:02:15;;;;;;;1.37;1.27;;;;;;;27.52;50.93;94996.97;5048624;28;20660;-72
2022/07/28 07:04:44;;;;;;;0.97;0.83;;;;;;;27.69;49.77;94998.41;5051623;28;20273;-73
2022/07/28 07:07:11;;;;;;;0.87;0.87;;;;;;;27.46;50.55;95003.03;5050923;28;20777;-72
2022/07/28 07:09:43;;;;;;;1.17;1.17;;;;;;;28.06;49.84;94998.63;5050861;28;20231;-73
2022/07/28 07:12:10;;;;;;;2.27;2.07;;;;;;;27.52;50.33;94996.19;5052001;28;20178;-73
2022/07/28 07:14:37;;;;;;;1.37;1.30;;;;;;;26.67;52.15;94999.19;5076341;28;20203;-73
2022/07/28 07:17:04;;;;;;;1.60;1.50;;;;;;;27.08;51.62;94986.97;5076164;28;20188;-73
2022/07/28 07:19:30;;;;;;;1.60;1.50;;;;;;;27.81;49.75;94990.13;5076772;28;20214;-73
2022/07/28 07:21:57;;;;;;;1.37;1.27;;;;;;;27.91;49.34;94992.22;5076793;28;20188;-72
2022/07/28 07:24:24;;;;;;;1.00;0.97;;;;;;;27.84;49.80;94986.72;5062630;28;20199;-71
2022/07/28 07:26:51;;;;;;;1.47;1.37;;;;;;;28.34;48.70;94994.38;5076528;28;20268;-73
2022/07/28 07:29:18;;;;;;;0.60;0.60;;;;;;;27.82;49.22;94997.88;5059052;28;20185;-71
2022/07/28 07:31:48;;;;;;;1.87;1.77;;;;;;;28.13;48.77;94991.41;5066195;28;20231;-73
2022/07/28 07:34:19;;;;;;;6.40;1.57;;;;;;;28.54;48.21;94993.13;5055600;28;20246;-72
2022/07/28 07:36:48;;;;;;;1.73;1.63;;;;;;;28.78;47.73;94998.06;5039657;28;20204;-72
2022/07/28 07:39:14;;;;;;;1.13;1.13;;;;;;;29.14;47.43;94998.47;5049734;28;20208;-71
2022/07/28 07:41:41;;;;;;;1.23;1.10;;;;;;;28.63;48.88;95009.81;5050102;28;20258;-72
2022/07/28 07:44:11;;;;;;;3.67;2.07;;;;;;;28.49;49.94;95012.31;5049889;28;20224;-70
2022/07/28 07:46:38;;;;;;;4.90;1.73;;;;;;;28.27;50.25;95023.94;5036109;28;20204;-72
2022/07/28 07:49:05;;;;;;;0.93;0.83;;;;;;;28.21;51.18;95022.69;5037710;28;20629;-74
2022/07/28 07:51:33;;;;;;;0.70;0.70;;;;;;;28.16;49.97;95031.09;5049325;28;20196;-72
2022/07/28 07:54:00;;;;;;;2.43;1.87;;;;;;;28.39;48.57;95023.75;5056924;28;20216;-73
2022/07/28 07:56:26;;;;;;;3.80;1.40;;;;;;;28.75;47.14;95023.06;5064454;28;20196;-70
2022/07/28 07:58:53;;;;;;;3.90;2.83;;;;;;;28.52;47.53;95033.16;5061749;28;20196;-71
2022/07/28 08:01:23;;;;;;;1.63;1.53;;;;;;;28.81;47.98;95023.53;5065798;28;20208;-72
2022/07/28 08:03:50;;;;;;;1.20;1.13;;;;;;;28.95;46.71;95029.06;5055879;28;20184;-74
2022/07/28 08:06:20;;;;;;;0.43;0.43;;;;;;;28.93;46.22;95037.53;5053310;28;20206;-74
2022/07/28 08:08:53;;;;;;;1.33;1.23;;;;;;;28.84;45.32;95039.75;5053240;28;20216;-73
2022/07/28 08:11:20;;;;;;;1.20;1.07;;;;;;;28.69;44.86;95048.81;5053553;28;20562;-73
2022/07/28 08:13:48;;;;;;;1.73;1.63;;;;;;;28.79;46.93;95048.16;5051448;28;20200;-73
2022/07/28 08:16:14;;;;;;;1.57;1.47;;;;;;;28.82;45.18;95031.25;5041209;28;20185;-73
2022/07/28 08:18:42;;;;;;;2.80;2.53;;;;;;;29.30;44.90;95044.91;5052501;28;20570;-72
2022/07/28 08:21:11;;;;;;;1.00;0.93;;;;;;;29.31;44.44;95036.44;5038973;28;20181;-73
2022/07/28 08:23:38;;;;;;;0.63;0.63;;;;;;;29.55;44.36;95040.53;5053043;28;20709;-75
2022/07/28 08:26:05;;;;;;;2.27;1.87;;;;;;;29.39;45.19;95042.69;5052717;28;20227;-72
2022/07/28 08:28:32;;;;;;;1.50;1.40;;;;;;;28.83;46.43;95045.50;5040511;28;20224;-74
2022/07/28 08:30:59;;;;;;;1.77;1.37;;;;;;;28.66;46.25;95054.16;5050034;28;20204;-72
2022/07/28 08:33:26;;;;;;;3.37;2.07;;;;;;;28.99;46.20;95054.94;5052824;28;20553;-74
2022/07/28 08:35:52;;;;;;;3.17;1.97;;;;;;;29.25;45.74;95045.25;5052155;28;20582;-72
2022/07/28 08:38:19;;;;;;;8.53;1.90;;;;;;;28.55;45.73;95055.94;5052782;28;20219;-72
2022/07/28 08:40:49;;;;;;;3.20;1.93;;;;;;;28.93;45.76;95059.13;5052309;28;20200;-74
2022/07/28 08:43:36;;;;;;;1.53;1.43;;;;;;;29.41;44.99;95051.97;5038839;28;20241;-71
2022/07/28 08:46:07;;;;;;;0.80;0.80;;;;;;;29.76;43.23;95052.31;5052422;28;20575;-73
2022/07/28 08:48:36;;;;;;;1.43;1.33;;;;;;;29.89;44.27;95060.91;5052012;28;20215;-73
2022/07/28 08:51:08;;;;;;;1.30;1.20;;;;;;;29.33;45.56;95071.16;5038403;28;20205;-73
2022/07/28 08:53:36;;;;;;;2.80;1.73;;;;;;;29.18;46.30;95058.66;5052166;28;20197;-75
2022/07/28 08:56:06;;;;;;;2.17;1.57;;;;;;;29.45;45.17;95062.81;5052327;28;20258;-72
2022/07/28 08:58:39;;;;;;;2.57;1.77;;;;;;;29.52;45.04;95068.28;5052443;28;20246;-73
2022/07/28 09:01:09;;;;;;;1.60;1.17;;;;;;;29.48;44.59;95062.06;5052157;28;20266;-74
2022/07/28 09:03:38;;;;;;;1.57;1.47;;;;;;;29.20;46.28;95077.94;5051752;28;20210;-75
2022/07/28 09:06:05;;;;;;;2.17;1.53;;;;;;;29.15;46.08;95086.38;5050786;28;20849;-73
2022/07/28 09:08:32;;;;;;;3.50;2.50;;;;;;;29.79;44.98;95075.91;5037972;28;20229;-74
2022/07/28 09:10:59;;;;;;;0.57;0.57;;;;;;;30.04;44.92;95078.78;5051927;28;20185;-73
2022/07/28 09:13:26;;;;;;;3.57;0.90;;;;;;;30.04;45.44;95086.91;5052017;28;20236;-74
2022/07/28 09:15:53;;;;;;;1.03;0.93;;;;;;;29.70;45.58;95074.66;5047049;28;20641;-71
2022/07/28 09:18:21;;;;;;;2.53;2.20;;;;;;;29.46;45.14;95072.44;5042970;28;20196;-73
2022/07/28 09:20:49;;;;;;;1.70;1.60;;;;;;;29.52;45.35;95074.47;5052032;28;20226;-71
2022/07/28 09:23:16;;;;;;;1.20;1.20;;;;;;;29.36;45.70;95081.22;5052389;28;20640;-72
2022/07/28 09:26:07;;;;;;;0.70;0.70;;;;;;;29.39;44.96;95078.56;5051783;28;20695;-75
2022/07/28 09:28:54;;;;;;;1.60;1.50;;;;;;;29.83;44.26;95067.81;5050178;28;20628;-73
2022/07/28 09:31:23;;;;;;;0.90;0.90;;;;;;;29.72;44.18;95056.16;5052174;28;20185;-71
2022/07/28 09:34:01;;;;;;;1.50;1.40;;;;;;;29.71;43.78;95049.19;5051313;28;20190;-70
2022/07/28 09:36:35;;;;;;;1.13;1.13;;;;;;;29.91;43.77;95048.59;5051819;28;20211;-74
2022/07/28 09:39:03;;;;;;;1.80;1.30;;;;;;;29.90;44.59;95046.25;5038006;28;20697;-73
2022/07/28 09:41:46;;;;;;;4.13;1.37;;;;;;;29.70;44.48;95050.34;5051053;28;20204;-72
2022/07/28 09:44:18;;;;;;;2.23;1.70;;;;;;;29.45;44.95;95052.00;5037000;28;20726;-72
2022/07/28 09:46:46;;;;;;;1.93;1.63;;;;;;;30.04;42.89;95057.19;5051379;28;20193;-74
2022/07/28 09:49:14;;;;;;;0.97;0.87;;;;;;;30.21;42.30;95061.94;5050780;28;20611;-73
2022/07/28 09:51:40;;;;;;;1.60;1.50;;;;;;;30.01;43.29;95057.94;5050704;28;20284;-73
2022/07/28 09:54:16;;;;;;;2.77;1.60;;;;;;;29.97;43.04;95056.34;5051067;28;20266;-75
2022/07/28 09:56:44;;;;;;;0.83;0.83;;;;;;;30.02;43.15;95048.66;5051147;28;20192;-72
2022/07/28 09:59:12;;;;;;;1.13;1.13;;;;;;;30.18;43.11;95057.31;5050768;28;20193;-74
2022/07/28 10:01:59;;;;;;;2.43;1.93;;;;;;;30.14;43.18;95051.09;5051268;28;20227;-71
2022/07/28 10:04:36;;;;;;;1.90;0.97;;;;;;;29.58;43.14;95066.81;5050866;28;20295;-76
2022/07/28 10:07:15;;;;;;;1.73;1.40;;;;;;;29.32;43.84;95075.00;5051084;28;20291;-74
2022/07/28 10:09:54;;;;;;;0.87;0.87;;;;;;;29.40;43.86;95060.41;5051074;28;20203;-78
2022/07/28 10:12:23;;;;;;;1.27;1.10;;;;;;;30.12;41.70;95053.38;5050947;28;20206;-74
2022/07/28 10:14:54;;;;;;;1.40;0.90;;;;;;;30.74;41.06;95046.84;5050461;28;20206;-71
2022/07/28 10:17:28;;;;;;;0.80;0.80;;;;;;;30.74;40.37;95054.97;5050606;28;20201;-72
2022/07/28 10:19:57;;;;;;;24.87;1.50;;;;;;;31.47;38.39;95045.59;5041130;28;20193;-74
2022/07/28 10:22:31;;;;;;;2.00;1.50;;;;;;;30.79;37.40;95043.75;5049967;28;20193;-70
2022/07/28 10:25:08;;;;;;;5.20;2.10;;;;;;;30.54;37.66;95053.69;5059616;28;20227;-71
2022/07/28 10:27:38;;;;;;;0.73;0.73;;;;;;;30.81;37.36;95046.91;5043776;28;20200;-74
2022/07/28 10:30:06;;;;;;;2.07;1.87;;;;;;;30.92;37.25;95046.16;5058859;28;20204;-68
2022/07/28 10:32:40;;;;;;;0.83;0.80;;;;;;;31.07;37.12;95053.19;5057995;28;20203;-74
2022/07/28 10:35:12;;;;;;;1.00;1.00;;;;;;;31.49;37.33;95035.16;5051283;28;20210;-78
2022/07/28 10:37:57;;;;;;;1.67;1.17;;;;;;;32.05;36.46;95031.72;5048819;28;20801;-74
2022/07/28 10:40:28;;;;;;;0.60;0.60;;;;;;;32.87;36.40;95027.66;5031288;28;20204;-71
2022/07/28 10:42:55;;;;;;;0.73;0.73;;;;;;;33.36;35.56;95032.09;5048780;28;20204;-71
2022/07/28 10:45:23;;;;;;;2.33;1.23;;;;;;;32.95;34.73;95028.44;5040613;28;20248;-73
2022/07/28 10:48:07;;;;;;;1.33;1.23;;;;;;;32.15;36.24;95036.38;5048802;28;20595;-79
2022/07/28 10:50:38;;;;;;;2.57;1.60;;;;;;;32.68;35.49;95025.44;5050281;28;20201;-75
2022/07/28 10:53:06;;;;;;;1.97;1.73;;;;;;;32.27;34.71;95035.94;5050431;28;20279;-78
2022/07/28 10:55:47;;;;;;;2.60;1.03;;;;;;;33.08;33.93;95019.47;5049687;28;20211;-71
2022/07/28 10:58:35;;;;;;;4.60;1.50;;;;;;;32.88;34.20;95029.22;5050764;28;20640;-76
2022/07/28 11:01:03;;;;;;;0.70;0.70;;;;;;;32.85;34.04;95023.81;5039288;28;20200;-74
2022/07/28 11:03:45;;;;;;;1.60;1.50;;;;;;;33.41;34.40;95009.97;5034942;28;20197;-73
2022/07/28 11:06:29;;;;;;;2.00;1.27;;;;;;;33.02;34.41;95007.47;5039655;28;20279;-77
2022/07/28 11:08:59;;;;;;;0.70;0.70;;;;;;;33.06;32.48;95008.22;5032633;28;20323;-76
2022/07/28 11:11:59;;;;;;;1.40;1.27;;;;;;;33.92;32.31;95004.56;5042136;28;20639;-68
2022/07/28 11:14:32;;;;;;;3.63;1.27;;;;;;;34.00;32.72;94987.03;5037188;28;20208;-74
2022/07/28 11:17:02;;;;;;;1.57;1.47;;;;;;;33.32;31.85;94987.91;5050403;28;20200;-73
2022/07/28 11:19:47;;;;;;;2.37;2.10;;;;;;;33.41;31.98;94986.28;5049920;28;20295;-71
2022/07/28 11:22:34;;;;;;;1.80;1.33;;;;;;;33.58;32.23;94984.63;5050160;28;20220;-68
2022/07/28 11:25:01;;;;;;;1.63;0.90;;;;;;;34.19;32.59;94972.88;5050427;28;20197;-73
2022/07/28 11:27:48;;;;;;;0.70;0.70;;;;;;;34.23;31.66;94975.56;5034087;28;20200;-76
2022/07/28 11:30:15;;;;;;;1.70;1.20;;;;;;;33.90;32.88;94976.22;5045519;28;20619;-75
2022/07/28 11:32:52;;;;;;;2.57;1.27;;;;;;;33.70;32.11;94976.03;5052253;28;20199;-75
2022/07/28 11:35:20;;;;;;;1.33;1.03;;;;;;;33.36;32.67;94953.31;5053991;28;20203;-73
2022/07/28 11:37:59;;;;;;;1.37;0.57;;;;;;;32.93;33.42;94960.16;5038851;28;20188;-71
2022/07/28 11:40:35;;;;;;;1.03;1.03;;;;;;;33.42;33.38;94944.38;5053722;28;20208;-73
2022/07/28 11:43:20;;;;;;;1.57;0.90;;;;;;;33.63;32.98;94965.22;5053190;28;20626;-74
2022/07/28 11:46:00;;;;;;;0.67;0.67;;;;;;;33.13;31.53;94963.97;5040233;28;20687;-76
2022/07/28 11:48:28;;;;;;;0.80;0.80;;;;;;;33.79;32.67;94963.50;5040894;28;20223;-74
2022/07/28 11:51:04;;;;;;;1.70;1.27;;;;;;;33.53;31.30;94966.03;5053532;28;20267;-73
2022/07/28 11:53:38;;;;;;;2.17;1.33;;;;;;;33.91;31.54;94964.94;5053942;28;20246;-72